sensor_id;sensor_type;location;lat;lon;timestamp;P1;durP1;ratioP1;P2;durP2;ratioP2
54897;SDS011;40800;52.704;6.398;2022-10-30T00:01:00;22.63;;;19.92;;
54897;SDS011;40800;52.704;6.398;2022-10-30T00:03:26;22.55;;;20.30;;
54897;SDS011;40800;52.704;6.398;2022-10-30T00:05:51;22.30;;;19.92;;
54897;SDS011;40800;52.704;6.398;2022-10-30T00:08:18;22.52;;;20.13;;
54897;SDS011;40800;52.704;6.398;2022-10-30T00:10:45;21.98;;;19.80;;
54897;SDS011;40800;52.704;6.398;2022-10-30T00:13:12;26.07;;;19.87;;
54897;SDS011;40800;52.704;6.398;2022-10-30T00:15:38;23.60;;;19.30;;
54897;SDS011;40800;52.704;6.398;2022-10-30T00:18:04;22.25;;;19.77;;
54897;SDS011;40800;52.704;6.398;2022-10-30T00:20:29;22.38;;;20.02;;
54897;SDS011;40800;52.704;6.398;2022-10-30T00:22:55;23.25;;;20.00;;
54897;SDS011;40800;52.704;6.398;2022-10-30T00:25:21;22.27;;;19.45;;
54897;SDS011;40800;52.704;6.398;2022-10-30T00:27:46;23.90;;;20.05;;
54897;SDS011;40800;52.704;6.398;2022-10-30T00:30:13;24.40;;;19.77;;
54897;SDS011;40800;52.704;6.398;2022-10-30T00:32:40;24.67;;;20.02;;
54897;SDS011;40800;52.704;6.398;2022-10-30T00:35:07;22.73;;;20.05;;
54897;SDS011;40800;52.704;6.398;2022-10-30T00:37:34;22.55;;;20.02;;
54897;SDS011;40800;52.704;6.398;2022-10-30T00:39:59;21.88;;;19.67;;
54897;SDS011;40800;52.704;6.398;2022-10-30T00:42:27;24.05;;;20.85;;
54897;SDS011;40800;52.704;6.398;2022-10-30T00:44:54;26.10;;;20.23;;
54897;SDS011;40800;52.704;6.398;2022-10-30T00:47:29;21.73;;;19.40;;
54897;SDS011;40800;52.704;6.398;2022-10-30T00:50:01;25.42;;;20.52;;
54897;SDS011;40800;52.704;6.398;2022-10-30T00:52:35;24.40;;;20.30;;
54897;SDS011;40800;52.704;6.398;2022-10-30T00:55:05;24.08;;;20.00;;
54897;SDS011;40800;52.704;6.398;2022-10-30T00:57:35;22.52;;;20.23;;
54897;SDS011;40800;52.704;6.398;2022-10-30T01:02:28;23.33;;;20.58;;
54897;SDS011;40800;52.704;6.398;2022-10-30T01:04:54;23.23;;;20.40;;
54897;SDS011;40800;52.704;6.398;2022-10-30T01:07:20;26.60;;;20.42;;
54897;SDS011;40800;52.704;6.398;2022-10-30T01:09:45;22.83;;;20.48;;
54897;SDS011;40800;52.704;6.398;2022-10-30T01:12:12;24.58;;;21.58;;
54897;SDS011;40800;52.704;6.398;2022-10-30T01:14:40;26.08;;;20.73;;
54897;SDS011;40800;52.704;6.398;2022-10-30T01:17:20;22.42;;;20.13;;
54897;SDS011;40800;52.704;6.398;2022-10-30T01:20:01;23.77;;;21.27;;
54897;SDS011;40800;52.704;6.398;2022-10-30T01:22:38;23.27;;;20.80;;
54897;SDS011;40800;52.704;6.398;2022-10-30T01:28:13;22.77;;;20.38;;
54897;SDS011;40800;52.704;6.398;2022-10-30T01:36:08;24.25;;;21.08;;
54897;SDS011;40800;52.704;6.398;2022-10-30T01:38:46;26.80;;;20.95;;
54897;SDS011;40800;52.704;6.398;2022-10-30T01:41:16;23.13;;;20.70;;
54897;SDS011;40800;52.704;6.398;2022-10-30T01:43:42;23.15;;;20.65;;
54897;SDS011;40800;52.704;6.398;2022-10-30T01:51:42;24.90;;;20.88;;
54897;SDS011;40800;52.704;6.398;2022-10-30T01:54:22;26.35;;;21.85;;
54897;SDS011;40800;52.704;6.398;2022-10-30T02:02:08;24.02;;;21.50;;
54897;SDS011;40800;52.704;6.398;2022-10-30T02:04:34;32.35;;;21.15;;
54897;SDS011;40800;52.704;6.398;2022-10-30T02:07:00;22.50;;;20.35;;
54897;SDS011;40800;52.704;6.398;2022-10-30T02:09:26;22.35;;;20.25;;
54897;SDS011;40800;52.704;6.398;2022-10-30T02:11:52;24.75;;;20.98;;
54897;SDS011;40800;52.704;6.398;2022-10-30T02:14:20;24.50;;;22.00;;
54897;SDS011;40800;52.704;6.398;2022-10-30T02:16:59;22.83;;;20.33;;
54897;SDS011;40800;52.704;6.398;2022-10-30T02:19:27;22.45;;;20.25;;
54897;SDS011;40800;52.704;6.398;2022-10-30T02:21:53;23.73;;;20.55;;
54897;SDS011;40800;52.704;6.398;2022-10-30T02:24:19;23.15;;;20.75;;
54897;SDS011;40800;52.704;6.398;2022-10-30T02:26:44;27.33;;;21.05;;
54897;SDS011;40800;52.704;6.398;2022-10-30T02:29:10;24.77;;;21.95;;
54897;SDS011;40800;52.704;6.398;2022-10-30T02:31:36;24.35;;;21.80;;
54897;SDS011;40800;52.704;6.398;2022-10-30T02:34:02;23.88;;;21.23;;
54897;SDS011;40800;52.704;6.398;2022-10-30T02:36:27;26.45;;;21.23;;
54897;SDS011;40800;52.704;6.398;2022-10-30T02:38:53;23.83;;;21.33;;
54897;SDS011;40800;52.704;6.398;2022-10-30T02:41:19;24.08;;;21.75;;
54897;SDS011;40800;52.704;6.398;2022-10-30T02:43:45;26.05;;;21.58;;
54897;SDS011;40800;52.704;6.398;2022-10-30T02:46:11;23.65;;;20.95;;
54897;SDS011;40800;52.704;6.398;2022-10-30T02:48:37;23.55;;;21.05;;
54897;SDS011;40800;52.704;6.398;2022-10-30T02:51:02;24.58;;;22.08;;
54897;SDS011;40800;52.704;6.398;2022-10-30T02:53:28;26.95;;;22.73;;
54897;SDS011;40800;52.704;6.398;2022-10-30T02:55:55;24.40;;;22.05;;
54897;SDS011;40800;52.704;6.398;2022-10-30T02:58:20;24.63;;;22.05;;
54897;SDS011;40800;52.704;6.398;2022-10-30T03:00:46;23.40;;;20.83;;
54897;SDS011;40800;52.704;6.398;2022-10-30T03:03:12;25.33;;;22.65;;
54897;SDS011;40800;52.704;6.398;2022-10-30T03:05:37;32.88;;;22.38;;
54897;SDS011;40800;52.704;6.398;2022-10-30T03:08:03;29.45;;;21.55;;
54897;SDS011;40800;52.704;6.398;2022-10-30T03:10:29;24.38;;;21.85;;
54897;SDS011;40800;52.704;6.398;2022-10-30T03:12:54;23.67;;;21.27;;
54897;SDS011;40800;52.704;6.398;2022-10-30T03:15:20;24.00;;;21.48;;
54897;SDS011;40800;52.704;6.398;2022-10-30T03:17:45;25.45;;;22.75;;
54897;SDS011;40800;52.704;6.398;2022-10-30T03:20:11;24.23;;;21.73;;
54897;SDS011;40800;52.704;6.398;2022-10-30T03:22:37;26.88;;;21.85;;
54897;SDS011;40800;52.704;6.398;2022-10-30T03:25:03;25.08;;;21.67;;
54897;SDS011;40800;52.704;6.398;2022-10-30T03:27:29;23.77;;;21.02;;
54897;SDS011;40800;52.704;6.398;2022-10-30T03:29:54;26.65;;;22.08;;
54897;SDS011;40800;52.704;6.398;2022-10-30T03:32:20;24.42;;;21.90;;
54897;SDS011;40800;52.704;6.398;2022-10-30T03:34:45;24.20;;;21.90;;
54897;SDS011;40800;52.704;6.398;2022-10-30T03:37:11;23.77;;;21.35;;
54897;SDS011;40800;52.704;6.398;2022-10-30T03:39:36;23.88;;;21.40;;
54897;SDS011;40800;52.704;6.398;2022-10-30T03:42:02;24.23;;;21.75;;
54897;SDS011;40800;52.704;6.398;2022-10-30T03:44:28;26.02;;;22.30;;
54897;SDS011;40800;52.704;6.398;2022-10-30T03:46:53;24.48;;;21.92;;
54897;SDS011;40800;52.704;6.398;2022-10-30T03:49:19;24.00;;;21.30;;
54897;SDS011;40800;52.704;6.398;2022-10-30T03:51:44;24.95;;;22.42;;
54897;SDS011;40800;52.704;6.398;2022-10-30T03:54:10;25.75;;;21.17;;
54897;SDS011;40800;52.704;6.398;2022-10-30T03:56:35;24.25;;;21.80;;
54897;SDS011;40800;52.704;6.398;2022-10-30T03:59:01;24.48;;;21.92;;
54897;SDS011;40800;52.704;6.398;2022-10-30T04:01:26;26.77;;;22.85;;
54897;SDS011;40800;52.704;6.398;2022-10-30T04:03:52;28.45;;;22.67;;
54897;SDS011;40800;52.704;6.398;2022-10-30T04:06:18;25.63;;;23.02;;
54897;SDS011;40800;52.704;6.398;2022-10-30T04:08:43;25.30;;;22.75;;
54897;SDS011;40800;52.704;6.398;2022-10-30T04:11:09;26.23;;;23.38;;
54897;SDS011;40800;52.704;6.398;2022-10-30T04:13:35;28.33;;;23.77;;
54897;SDS011;40800;52.704;6.398;2022-10-30T04:16:01;25.07;;;22.47;;
54897;SDS011;40800;52.704;6.398;2022-10-30T04:18:27;25.42;;;22.73;;
54897;SDS011;40800;52.704;6.398;2022-10-30T04:20:53;25.08;;;22.40;;
54897;SDS011;40800;52.704;6.398;2022-10-30T04:23:19;25.02;;;22.40;;
54897;SDS011;40800;52.704;6.398;2022-10-30T04:25:45;24.80;;;22.25;;
54897;SDS011;40800;52.704;6.398;2022-10-30T04:28:12;27.60;;;23.40;;
54897;SDS011;40800;52.704;6.398;2022-10-30T04:30:38;28.13;;;22.95;;
54897;SDS011;40800;52.704;6.398;2022-10-30T04:33:05;25.63;;;22.90;;
54897;SDS011;40800;52.704;6.398;2022-10-30T04:35:32;25.35;;;22.40;;
54897;SDS011;40800;52.704;6.398;2022-10-30T04:38:04;27.92;;;22.98;;
54897;SDS011;40800;52.704;6.398;2022-10-30T04:40:34;27.13;;;24.00;;
54897;SDS011;40800;52.704;6.398;2022-10-30T04:43:01;24.70;;;22.15;;
54897;SDS011;40800;52.704;6.398;2022-10-30T04:45:27;26.48;;;22.63;;
54897;SDS011;40800;52.704;6.398;2022-10-30T04:47:58;26.33;;;23.77;;
54897;SDS011;40800;52.704;6.398;2022-10-30T04:50:29;29.25;;;24.48;;
54897;SDS011;40800;52.704;6.398;2022-10-30T04:53:02;27.02;;;23.33;;
54897;SDS011;40800;52.704;6.398;2022-10-30T04:55:32;26.55;;;23.80;;
54897;SDS011;40800;52.704;6.398;2022-10-30T04:57:58;26.00;;;23.40;;
54897;SDS011;40800;52.704;6.398;2022-10-30T05:00:26;26.00;;;23.20;;
54897;SDS011;40800;52.704;6.398;2022-10-30T05:02:52;24.95;;;22.33;;
54897;SDS011;40800;52.704;6.398;2022-10-30T05:05:18;28.58;;;22.98;;
54897;SDS011;40800;52.704;6.398;2022-10-30T05:07:44;24.38;;;22.05;;
54897;SDS011;40800;52.704;6.398;2022-10-30T05:10:11;23.67;;;21.20;;
54897;SDS011;40800;52.704;6.398;2022-10-30T05:12:42;24.85;;;22.27;;
54897;SDS011;40800;52.704;6.398;2022-10-30T05:15:09;24.73;;;22.17;;
54897;SDS011;40800;52.704;6.398;2022-10-30T05:17:36;24.20;;;21.63;;
54897;SDS011;40800;52.704;6.398;2022-10-30T05:20:02;25.02;;;22.42;;
54897;SDS011;40800;52.704;6.398;2022-10-30T05:22:28;24.52;;;22.20;;
54897;SDS011;40800;52.704;6.398;2022-10-30T05:24:53;22.50;;;20.38;;
54897;SDS011;40800;52.704;6.398;2022-10-30T05:27:19;24.25;;;21.95;;
54897;SDS011;40800;52.704;6.398;2022-10-30T05:29:45;24.17;;;21.42;;
54897;SDS011;40800;52.704;6.398;2022-10-30T05:32:10;25.27;;;22.45;;
54897;SDS011;40800;52.704;6.398;2022-10-30T05:34:36;24.08;;;21.58;;
54897;SDS011;40800;52.704;6.398;2022-10-30T05:37:01;24.10;;;21.75;;
54897;SDS011;40800;52.704;6.398;2022-10-30T05:39:27;26.35;;;23.20;;
54897;SDS011;40800;52.704;6.398;2022-10-30T05:41:52;23.83;;;21.42;;
54897;SDS011;40800;52.704;6.398;2022-10-30T05:44:18;24.08;;;21.65;;
54897;SDS011;40800;52.704;6.398;2022-10-30T05:46:43;24.75;;;22.17;;
54897;SDS011;40800;52.704;6.398;2022-10-30T05:49:09;25.27;;;22.63;;
54897;SDS011;40800;52.704;6.398;2022-10-30T05:51:35;24.38;;;21.77;;
54897;SDS011;40800;52.704;6.398;2022-10-30T05:54:00;25.80;;;23.00;;
54897;SDS011;40800;52.704;6.398;2022-10-30T05:56:26;25.60;;;22.98;;
54897;SDS011;40800;52.704;6.398;2022-10-30T05:58:51;26.67;;;23.83;;
54897;SDS011;40800;52.704;6.398;2022-10-30T06:01:17;27.73;;;24.10;;
54897;SDS011;40800;52.704;6.398;2022-10-30T06:03:43;28.00;;;24.25;;
54897;SDS011;40800;52.704;6.398;2022-10-30T06:06:09;26.70;;;23.85;;
54897;SDS011;40800;52.704;6.398;2022-10-30T06:08:34;27.15;;;23.50;;
54897;SDS011;40800;52.704;6.398;2022-10-30T06:11:00;26.27;;;23.80;;
54897;SDS011;40800;52.704;6.398;2022-10-30T06:13:25;28.17;;;24.70;;
54897;SDS011;40800;52.704;6.398;2022-10-30T06:15:53;27.17;;;24.15;;
54897;SDS011;40800;52.704;6.398;2022-10-30T06:18:20;28.45;;;23.75;;
54897;SDS011;40800;52.704;6.398;2022-10-30T06:20:45;25.90;;;23.20;;
54897;SDS011;40800;52.704;6.398;2022-10-30T06:23:11;27.52;;;24.60;;
54897;SDS011;40800;52.704;6.398;2022-10-30T06:25:37;27.60;;;24.65;;
54897;SDS011;40800;52.704;6.398;2022-10-30T06:28:02;30.23;;;23.63;;
54897;SDS011;40800;52.704;6.398;2022-10-30T06:30:28;27.27;;;24.42;;
54897;SDS011;40800;52.704;6.398;2022-10-30T06:32:55;32.05;;;25.73;;
54897;SDS011;40800;52.704;6.398;2022-10-30T06:35:24;28.50;;;24.40;;
54897;SDS011;40800;52.704;6.398;2022-10-30T06:37:51;28.90;;;25.85;;
54897;SDS011;40800;52.704;6.398;2022-10-30T06:40:20;31.95;;;25.65;;
54897;SDS011;40800;52.704;6.398;2022-10-30T06:42:48;30.52;;;25.50;;
54897;SDS011;40800;52.704;6.398;2022-10-30T06:45:15;28.33;;;25.05;;
54897;SDS011;40800;52.704;6.398;2022-10-30T06:47:42;28.48;;;25.17;;
54897;SDS011;40800;52.704;6.398;2022-10-30T06:50:09;29.38;;;26.30;;
54897;SDS011;40800;52.704;6.398;2022-10-30T06:52:36;29.42;;;26.10;;
54897;SDS011;40800;52.704;6.398;2022-10-30T06:55:02;32.92;;;25.95;;
54897;SDS011;40800;52.704;6.398;2022-10-30T06:57:28;35.80;;;25.77;;
54897;SDS011;40800;52.704;6.398;2022-10-30T06:59:54;28.15;;;24.80;;
54897;SDS011;40800;52.704;6.398;2022-10-30T07:02:19;30.33;;;24.88;;
54897;SDS011;40800;52.704;6.398;2022-10-30T07:04:45;28.38;;;25.15;;
54897;SDS011;40800;52.704;6.398;2022-10-30T07:07:11;28.88;;;25.95;;
54897;SDS011;40800;52.704;6.398;2022-10-30T07:09:37;27.70;;;24.77;;
54897;SDS011;40800;52.704;6.398;2022-10-30T07:12:03;29.88;;;25.45;;
54897;SDS011;40800;52.704;6.398;2022-10-30T07:14:29;33.70;;;25.00;;
54897;SDS011;40800;52.704;6.398;2022-10-30T07:16:54;29.55;;;25.23;;
54897;SDS011;40800;52.704;6.398;2022-10-30T07:19:20;27.73;;;24.83;;
54897;SDS011;40800;52.704;6.398;2022-10-30T07:21:47;29.55;;;24.88;;
54897;SDS011;40800;52.704;6.398;2022-10-30T07:24:12;28.73;;;24.05;;
54897;SDS011;40800;52.704;6.398;2022-10-30T07:26:38;32.90;;;25.48;;
54897;SDS011;40800;52.704;6.398;2022-10-30T07:29:03;26.90;;;24.15;;
54897;SDS011;40800;52.704;6.398;2022-10-30T07:31:29;27.60;;;24.55;;
54897;SDS011;40800;52.704;6.398;2022-10-30T07:33:55;28.73;;;24.67;;
54897;SDS011;40800;52.704;6.398;2022-10-30T07:36:21;27.65;;;23.98;;
54897;SDS011;40800;52.704;6.398;2022-10-30T07:38:47;26.20;;;23.80;;
54897;SDS011;40800;52.704;6.398;2022-10-30T07:41:13;26.73;;;23.98;;
54897;SDS011;40800;52.704;6.398;2022-10-30T07:43:39;27.85;;;25.00;;
54897;SDS011;40800;52.704;6.398;2022-10-30T07:46:04;29.17;;;25.83;;
54897;SDS011;40800;52.704;6.398;2022-10-30T07:48:30;28.38;;;25.30;;
54897;SDS011;40800;52.704;6.398;2022-10-30T07:50:56;29.23;;;26.00;;
54897;SDS011;40800;52.704;6.398;2022-10-30T07:53:21;29.48;;;26.30;;
54897;SDS011;40800;52.704;6.398;2022-10-30T07:55:47;29.00;;;25.83;;
54897;SDS011;40800;52.704;6.398;2022-10-30T07:58:12;30.08;;;26.88;;
54897;SDS011;40800;52.704;6.398;2022-10-30T08:00:38;29.58;;;26.63;;
54897;SDS011;40800;52.704;6.398;2022-10-30T08:03:03;28.80;;;25.70;;
54897;SDS011;40800;52.704;6.398;2022-10-30T08:05:30;29.40;;;26.27;;
54897;SDS011;40800;52.704;6.398;2022-10-30T08:07:56;29.23;;;26.20;;
54897;SDS011;40800;52.704;6.398;2022-10-30T08:10:22;31.73;;;26.55;;
54897;SDS011;40800;52.704;6.398;2022-10-30T08:12:47;30.90;;;27.67;;
54897;SDS011;40800;52.704;6.398;2022-10-30T08:15:13;30.30;;;27.13;;
54897;SDS011;40800;52.704;6.398;2022-10-30T08:17:42;32.00;;;27.10;;
54897;SDS011;40800;52.704;6.398;2022-10-30T08:20:10;29.35;;;26.27;;
54897;SDS011;40800;52.704;6.398;2022-10-30T08:22:53;29.98;;;26.65;;
54897;SDS011;40800;52.704;6.398;2022-10-30T08:25:20;30.08;;;26.88;;
54897;SDS011;40800;52.704;6.398;2022-10-30T08:28:01;33.72;;;26.42;;
54897;SDS011;40800;52.704;6.398;2022-10-30T08:32:57;30.10;;;26.93;;
54897;SDS011;40800;52.704;6.398;2022-10-30T08:35:23;30.33;;;26.88;;
54897;SDS011;40800;52.704;6.398;2022-10-30T08:37:49;29.60;;;26.65;;
54897;SDS011;40800;52.704;6.398;2022-10-30T08:40:18;29.65;;;26.40;;
54897;SDS011;40800;52.704;6.398;2022-10-30T08:42:53;30.13;;;26.98;;
54897;SDS011;40800;52.704;6.398;2022-10-30T08:45:20;28.70;;;25.77;;
54897;SDS011;40800;52.704;6.398;2022-10-30T08:47:47;29.52;;;25.67;;
54897;SDS011;40800;52.704;6.398;2022-10-30T08:50:21;31.75;;;27.38;;
54897;SDS011;40800;52.704;6.398;2022-10-30T08:52:46;29.05;;;26.38;;
54897;SDS011;40800;52.704;6.398;2022-10-30T08:55:12;29.90;;;26.77;;
54897;SDS011;40800;52.704;6.398;2022-10-30T08:57:38;30.02;;;26.75;;
54897;SDS011;40800;52.704;6.398;2022-10-30T09:00:04;30.27;;;27.17;;
54897;SDS011;40800;52.704;6.398;2022-10-30T09:02:31;29.70;;;25.88;;
54897;SDS011;40800;52.704;6.398;2022-10-30T09:04:57;28.80;;;25.98;;
54897;SDS011;40800;52.704;6.398;2022-10-30T09:07:22;28.35;;;25.55;;
54897;SDS011;40800;52.704;6.398;2022-10-30T09:09:48;29.25;;;26.25;;
54897;SDS011;40800;52.704;6.398;2022-10-30T09:12:14;29.08;;;25.88;;
54897;SDS011;40800;52.704;6.398;2022-10-30T09:14:40;30.70;;;25.50;;
54897;SDS011;40800;52.704;6.398;2022-10-30T09:17:06;29.95;;;26.27;;
54897;SDS011;40800;52.704;6.398;2022-10-30T09:19:32;27.40;;;24.65;;
54897;SDS011;40800;52.704;6.398;2022-10-30T09:21:57;28.27;;;25.27;;
54897;SDS011;40800;52.704;6.398;2022-10-30T09:24:23;27.55;;;24.80;;
54897;SDS011;40800;52.704;6.398;2022-10-30T09:26:48;26.58;;;23.92;;
54897;SDS011;40800;52.704;6.398;2022-10-30T09:29:14;28.05;;;24.15;;
54897;SDS011;40800;52.704;6.398;2022-10-30T09:31:40;27.23;;;24.33;;
54897;SDS011;40800;52.704;6.398;2022-10-30T09:34:05;26.52;;;23.73;;
54897;SDS011;40800;52.704;6.398;2022-10-30T09:36:31;26.45;;;23.83;;
54897;SDS011;40800;52.704;6.398;2022-10-30T09:38:57;30.10;;;24.00;;
54897;SDS011;40800;52.704;6.398;2022-10-30T09:52:12;29.95;;;22.70;;
54897;SDS011;40800;52.704;6.398;2022-10-30T10:00:09;23.98;;;21.38;;
54897;SDS011;40800;52.704;6.398;2022-10-30T10:05:10;25.75;;;21.73;;
54897;SDS011;40800;52.704;6.398;2022-10-30T10:07:49;24.90;;;22.20;;
54897;SDS011;40800;52.704;6.398;2022-10-30T10:10:21;24.88;;;22.13;;
54897;SDS011;40800;52.704;6.398;2022-10-30T10:12:58;24.30;;;21.80;;
54897;SDS011;40800;52.704;6.398;2022-10-30T10:15:44;24.30;;;21.80;;
54897;SDS011;40800;52.704;6.398;2022-10-30T10:18:17;23.35;;;21.13;;
54897;SDS011;40800;52.704;6.398;2022-10-30T10:20:49;23.77;;;21.17;;
54897;SDS011;40800;52.704;6.398;2022-10-30T10:23:30;23.48;;;20.88;;
54897;SDS011;40800;52.704;6.398;2022-10-30T10:26:06;23.13;;;20.58;;
54897;SDS011;40800;52.704;6.398;2022-10-30T10:31:26;22.92;;;20.60;;
54897;SDS011;40800;52.704;6.398;2022-10-30T10:34:16;22.63;;;20.08;;
54897;SDS011;40800;52.704;6.398;2022-10-30T10:45:38;22.70;;;17.25;;
54897;SDS011;40800;52.704;6.398;2022-10-30T10:51:00;22.40;;;18.30;;
54897;SDS011;40800;52.704;6.398;2022-10-30T10:53:35;22.17;;;18.55;;
54897;SDS011;40800;52.704;6.398;2022-10-30T10:56:04;22.35;;;17.85;;
54897;SDS011;40800;52.704;6.398;2022-10-30T10:58:35;20.08;;;17.52;;
54897;SDS011;40800;52.704;6.398;2022-10-30T11:01:19;21.45;;;17.33;;
54897;SDS011;40800;52.704;6.398;2022-10-30T11:04:01;20.77;;;18.05;;
54897;SDS011;40800;52.704;6.398;2022-10-30T11:06:34;22.33;;;18.15;;
54897;SDS011;40800;52.704;6.398;2022-10-30T11:11:43;21.30;;;17.33;;
54897;SDS011;40800;52.704;6.398;2022-10-30T11:14:13;19.58;;;17.13;;
54897;SDS011;40800;52.704;6.398;2022-10-30T11:16:47;19.08;;;16.83;;
54897;SDS011;40800;52.704;6.398;2022-10-30T11:19:33;20.77;;;16.63;;
54897;SDS011;40800;52.704;6.398;2022-10-30T11:21:58;19.88;;;16.20;;
54897;SDS011;40800;52.704;6.398;2022-10-30T11:24:33;26.98;;;16.73;;
54897;SDS011;40800;52.704;6.398;2022-10-30T11:29:51;21.42;;;17.20;;
54897;SDS011;40800;52.704;6.398;2022-10-30T11:32:31;20.35;;;17.42;;
54897;SDS011;40800;52.704;6.398;2022-10-30T11:34:59;19.48;;;16.63;;
54897;SDS011;40800;52.704;6.398;2022-10-30T11:37:31;23.73;;;17.65;;
54897;SDS011;40800;52.704;6.398;2022-10-30T11:42:41;19.77;;;16.52;;
54897;SDS011;40800;52.704;6.398;2022-10-30T11:45:15;19.95;;;16.48;;
54897;SDS011;40800;52.704;6.398;2022-10-30T11:48:19;20.17;;;16.05;;
54897;SDS011;40800;52.704;6.398;2022-10-30T11:50:48;17.02;;;14.18;;
54897;SDS011;40800;52.704;6.398;2022-10-30T11:53:20;16.25;;;13.55;;
54897;SDS011;40800;52.704;6.398;2022-10-30T11:55:48;15.32;;;12.85;;
54897;SDS011;40800;52.704;6.398;2022-10-30T11:58:22;17.40;;;13.93;;
54897;SDS011;40800;52.704;6.398;2022-10-30T12:01:15;20.67;;;13.05;;
54897;SDS011;40800;52.704;6.398;2022-10-30T12:03:43;16.60;;;10.27;;
54897;SDS011;40800;52.704;6.398;2022-10-30T12:06:19;15.97;;;9.50;;
54897;SDS011;40800;52.704;6.398;2022-10-30T12:11:31;17.50;;;9.98;;
54897;SDS011;40800;52.704;6.398;2022-10-30T12:13:58;15.70;;;10.32;;
54897;SDS011;40800;52.704;6.398;2022-10-30T12:16:24;16.08;;;10.27;;
54897;SDS011;40800;52.704;6.398;2022-10-30T12:21:26;16.77;;;10.38;;
54897;SDS011;40800;52.704;6.398;2022-10-30T12:23:55;16.98;;;10.20;;
54897;SDS011;40800;52.704;6.398;2022-10-30T12:26:25;18.23;;;11.00;;
54897;SDS011;40800;52.704;6.398;2022-10-30T12:28:57;17.15;;;10.82;;
54897;SDS011;40800;52.704;6.398;2022-10-30T12:32:13;16.38;;;10.30;;
54897;SDS011;40800;52.704;6.398;2022-10-30T12:36:52;15.95;;;10.48;;
54897;SDS011;40800;52.704;6.398;2022-10-30T12:39:33;16.55;;;10.75;;
54897;SDS011;40800;52.704;6.398;2022-10-30T12:42:09;16.60;;;10.20;;
54897;SDS011;40800;52.704;6.398;2022-10-30T12:44:40;16.63;;;9.18;;
54897;SDS011;40800;52.704;6.398;2022-10-30T12:47:16;15.75;;;9.85;;
54897;SDS011;40800;52.704;6.398;2022-10-30T12:49:51;14.85;;;10.10;;
54897;SDS011;40800;52.704;6.398;2022-10-30T12:52:48;15.95;;;9.80;;
54897;SDS011;40800;52.704;6.398;2022-10-30T12:55:34;17.45;;;9.73;;
54897;SDS011;40800;52.704;6.398;2022-10-30T13:01:12;19.13;;;10.38;;
54897;SDS011;40800;52.704;6.398;2022-10-30T13:03:59;17.73;;;9.95;;
54897;SDS011;40800;52.704;6.398;2022-10-30T13:09:39;19.20;;;9.95;;
54897;SDS011;40800;52.704;6.398;2022-10-30T13:12:12;19.35;;;9.88;;
54897;SDS011;40800;52.704;6.398;2022-10-30T13:17:42;16.85;;;9.60;;
54897;SDS011;40800;52.704;6.398;2022-10-30T13:20:11;16.53;;;9.17;;
54897;SDS011;40800;52.704;6.398;2022-10-30T13:22:52;18.30;;;9.70;;
54897;SDS011;40800;52.704;6.398;2022-10-30T13:25:34;15.32;;;9.20;;
54897;SDS011;40800;52.704;6.398;2022-10-30T13:28:35;17.25;;;9.35;;
54897;SDS011;40800;52.704;6.398;2022-10-30T13:31:17;17.33;;;9.02;;
54897;SDS011;40800;52.704;6.398;2022-10-30T13:36:21;15.02;;;9.48;;
54897;SDS011;40800;52.704;6.398;2022-10-30T13:47:12;17.27;;;11.13;;
54897;SDS011;40800;52.704;6.398;2022-10-30T13:52:49;17.77;;;11.35;;
54897;SDS011;40800;52.704;6.398;2022-10-30T14:03:23;17.58;;;11.52;;
54897;SDS011;40800;52.704;6.398;2022-10-30T14:06:30;19.45;;;11.68;;
54897;SDS011;40800;52.704;6.398;2022-10-30T14:09:13;21.52;;;12.25;;
54897;SDS011;40800;52.704;6.398;2022-10-30T14:11:59;20.52;;;11.90;;
54897;SDS011;40800;52.704;6.398;2022-10-30T14:14:44;19.98;;;12.38;;
54897;SDS011;40800;52.704;6.398;2022-10-30T14:17:15;20.02;;;11.70;;
54897;SDS011;40800;52.704;6.398;2022-10-30T14:22:28;18.75;;;12.00;;
54897;SDS011;40800;52.704;6.398;2022-10-30T14:24:55;21.55;;;12.55;;
54897;SDS011;40800;52.704;6.398;2022-10-30T14:27:25;17.80;;;11.35;;
54897;SDS011;40800;52.704;6.398;2022-10-30T14:29:53;19.02;;;12.02;;
54897;SDS011;40800;52.704;6.398;2022-10-30T14:39:47;20.30;;;12.60;;
54897;SDS011;40800;52.704;6.398;2022-10-30T14:56:41;21.02;;;14.00;;
54897;SDS011;40800;52.704;6.398;2022-10-30T15:01:47;21.60;;;13.23;;
54897;SDS011;40800;52.704;6.398;2022-10-30T15:04:24;18.15;;;11.75;;
54897;SDS011;40800;52.704;6.398;2022-10-30T15:12:24;22.42;;;12.85;;
54897;SDS011;40800;52.704;6.398;2022-10-30T15:15:13;16.42;;;12.90;;
54897;SDS011;40800;52.704;6.398;2022-10-30T15:17:44;16.25;;;11.93;;
54897;SDS011;40800;52.704;6.398;2022-10-30T15:20:13;20.95;;;12.85;;
54897;SDS011;40800;52.704;6.398;2022-10-30T15:22:42;18.73;;;11.75;;
54897;SDS011;40800;52.704;6.398;2022-10-30T15:25:17;25.45;;;14.15;;
54897;SDS011;40800;52.704;6.398;2022-10-30T15:27:45;19.00;;;12.73;;
54897;SDS011;40800;52.704;6.398;2022-10-30T15:30:17;19.77;;;12.18;;
54897;SDS011;40800;52.704;6.398;2022-10-30T15:32:45;20.95;;;12.35;;
54897;SDS011;40800;52.704;6.398;2022-10-30T15:35:32;22.80;;;13.55;;
54897;SDS011;40800;52.704;6.398;2022-10-30T15:38:06;16.55;;;10.50;;
54897;SDS011;40800;52.704;6.398;2022-10-30T15:40:34;25.58;;;13.30;;
54897;SDS011;40800;52.704;6.398;2022-10-30T15:43:01;20.13;;;12.18;;
54897;SDS011;40800;52.704;6.398;2022-10-30T15:45:31;20.00;;;14.80;;
54897;SDS011;40800;52.704;6.398;2022-10-30T15:48:06;21.95;;;16.00;;
54897;SDS011;40800;52.704;6.398;2022-10-30T15:50:54;45.92;;;16.58;;
54897;SDS011;40800;52.704;6.398;2022-10-30T15:53:37;23.02;;;15.50;;
54897;SDS011;40800;52.704;6.398;2022-10-30T15:56:21;26.98;;;16.35;;
54897;SDS011;40800;52.704;6.398;2022-10-30T15:58:53;24.45;;;16.35;;
54897;SDS011;40800;52.704;6.398;2022-10-30T16:01:33;24.73;;;16.05;;
54897;SDS011;40800;52.704;6.398;2022-10-30T16:06:51;27.35;;;17.65;;
54897;SDS011;40800;52.704;6.398;2022-10-30T16:09:18;28.85;;;17.13;;
54897;SDS011;40800;52.704;6.398;2022-10-30T16:11:45;23.00;;;17.17;;
54897;SDS011;40800;52.704;6.398;2022-10-30T16:14:16;23.30;;;16.60;;
54897;SDS011;40800;52.704;6.398;2022-10-30T16:16:45;22.25;;;17.83;;
54897;SDS011;40800;52.704;6.398;2022-10-30T16:19:18;26.20;;;18.10;;
54897;SDS011;40800;52.704;6.398;2022-10-30T16:21:52;24.40;;;17.05;;
54897;SDS011;40800;52.704;6.398;2022-10-30T16:24:20;25.80;;;18.13;;
54897;SDS011;40800;52.704;6.398;2022-10-30T16:29:39;27.55;;;19.45;;
54897;SDS011;40800;52.704;6.398;2022-10-30T16:32:13;27.55;;;19.67;;
54897;SDS011;40800;52.704;6.398;2022-10-30T16:34:41;26.95;;;20.10;;
54897;SDS011;40800;52.704;6.398;2022-10-30T16:39:46;24.85;;;19.52;;
54897;SDS011;40800;52.704;6.398;2022-10-30T16:42:17;29.58;;;21.60;;
54897;SDS011;40800;52.704;6.398;2022-10-30T16:44:50;29.35;;;23.00;;
54897;SDS011;40800;52.704;6.398;2022-10-30T16:47:38;31.60;;;22.90;;
54897;SDS011;40800;52.704;6.398;2022-10-30T16:50:09;28.80;;;23.20;;
54897;SDS011;40800;52.704;6.398;2022-10-30T16:52:39;28.65;;;22.67;;
54897;SDS011;40800;52.704;6.398;2022-10-30T16:55:07;29.05;;;24.08;;
54897;SDS011;40800;52.704;6.398;2022-10-30T16:57:45;27.90;;;24.90;;
54897;SDS011;40800;52.704;6.398;2022-10-30T17:00:17;28.20;;;23.55;;